sensor_id;sensor_type;location;lat;lon;timestamp;pressure;altitude;pressure_sealevel;temperature;humidity
21664;BME280;10993;52.510;13.456;2023-03-03T00:02:28;56605.34;;;-146.93;78.88
21664;BME280;10993;52.510;13.456;2023-03-03T00:07:29;56579.00;;;-146.93;78.97
21664;BME280;10993;52.510;13.456;2023-03-03T00:12:30;56421.09;;;-146.93;78.97
21664;BME280;10993;52.510;13.456;2023-03-03T00:17:31;56587.13;;;-146.93;78.36
21664;BME280;10993;52.510;13.456;2023-03-03T00:22:35;56593.19;;;-146.93;78.22
21664;BME280;10993;52.510;13.456;2023-03-03T00:27:37;56595.22;;;-146.93;78.29
21664;BME280;10993;52.510;13.456;2023-03-03T00:32:41;56560.78;;;-146.93;79.52
21664;BME280;10993;52.510;13.456;2023-03-03T00:37:46;56601.28;;;-146.93;78.72
21664;BME280;10993;52.510;13.456;2023-03-03T00:42:50;56558.75;;;-146.93;77.64
21664;BME280;10993;52.510;13.456;2023-03-03T00:47:51;56649.88;;;-146.93;78.13
21664;BME280;10993;52.510;13.456;2023-03-03T00:52:58;56568.88;;;-146.93;77.35
21664;BME280;10993;52.510;13.456;2023-03-03T00:58:02;56548.66;;;-146.93;76.73
21664;BME280;10993;52.510;13.456;2023-03-03T01:03:04;56587.13;;;-146.93;77.46
21664;BME280;10993;52.510;13.456;2023-03-03T01:08:05;56577.00;;;-146.93;76.81
21664;BME280;10993;52.510;13.456;2023-03-03T01:13:07;56546.63;;;-146.93;76.30
21664;BME280;10993;52.510;13.456;2023-03-03T01:18:08;56568.88;;;-146.93;76.61
21664;BME280;10993;52.510;13.456;2023-03-03T01:23:09;56581.03;;;-146.93;76.45
21664;BME280;10993;52.510;13.456;2023-03-03T01:28:11;56566.88;;;-146.93;75.53
21664;BME280;10993;52.510;13.456;2023-03-03T01:33:11;56587.13;;;-146.93;75.51
21664;BME280;10993;52.510;13.456;2023-03-03T01:38:12;56540.53;;;-146.93;75.33
21664;BME280;10993;52.510;13.456;2023-03-03T01:43:14;56548.66;;;-146.93;75.97
21664;BME280;10993;52.510;13.456;2023-03-03T01:48:17;56585.09;;;-146.93;75.26
21664;BME280;10993;52.510;13.456;2023-03-03T01:53:22;56522.31;;;-146.93;75.09
21664;BME280;10993;52.510;13.456;2023-03-03T01:58:29;56528.41;;;-146.93;75.23
21664;BME280;10993;52.510;13.456;2023-03-03T02:03:30;56536.50;;;-146.93;74.69
21664;BME280;10993;52.510;13.456;2023-03-03T02:08:37;56560.78;;;-146.93;74.64
21664;BME280;10993;52.510;13.456;2023-03-03T02:13:40;56556.75;;;-146.93;74.50
21664;BME280;10993;52.510;13.456;2023-03-03T02:18:40;56550.66;;;-146.93;74.84
21664;BME280;10993;52.510;13.456;2023-03-03T02:23:47;56560.78;;;-146.93;76.09
21664;BME280;10993;52.510;13.456;2023-03-03T02:28:50;56574.97;;;-146.93;75.67
21664;BME280;10993;52.510;13.456;2023-03-03T02:33:52;56577.00;;;-146.93;74.88
21664;BME280;10993;52.510;13.456;2023-03-03T02:38:59;56546.63;;;-146.93;74.70
21664;BME280;10993;52.510;13.456;2023-03-03T02:44:06;56700.50;;;-146.93;75.49
21664;BME280;10993;52.510;13.456;2023-03-03T02:49:08;56605.34;;;-146.93;75.14
21664;BME280;10993;52.510;13.456;2023-03-03T02:54:11;56516.25;;;-146.93;76.57
21664;BME280;10993;52.510;13.456;2023-03-03T02:59:13;56577.00;;;-146.93;75.79
21664;BME280;10993;52.510;13.456;2023-03-03T03:04:15;56461.59;;;-146.93;75.58
21664;BME280;10993;52.510;13.456;2023-03-03T03:09:17;56560.78;;;-146.93;75.48
21664;BME280;10993;52.510;13.456;2023-03-03T03:14:19;56550.66;;;-146.93;75.69
21664;BME280;10993;52.510;13.456;2023-03-03T03:19:19;56564.84;;;-146.93;75.67
21664;BME280;10993;52.510;13.456;2023-03-03T03:24:19;56536.50;;;-146.93;76.60
21664;BME280;10993;52.510;13.456;2023-03-03T03:29:21;56572.94;;;-146.93;76.93
21664;BME280;10993;52.510;13.456;2023-03-03T03:34:22;56489.94;;;-146.93;76.34
21664;BME280;10993;52.510;13.456;2023-03-03T03:39:22;56538.53;;;-146.93;75.90
21664;BME280;10993;52.510;13.456;2023-03-03T03:44:24;56572.94;;;-146.93;76.08
21664;BME280;10993;52.510;13.456;2023-03-03T03:49:24;56572.94;;;-146.93;76.06
21664;BME280;10993;52.510;13.456;2023-03-03T03:54:24;56603.31;;;-146.93;77.05
21664;BME280;10993;52.510;13.456;2023-03-03T03:59:26;56599.25;;;-146.93;77.16
21664;BME280;10993;52.510;13.456;2023-03-03T04:04:26;56540.53;;;-146.93;77.26
21664;BME280;10993;52.510;13.456;2023-03-03T04:09:27;56568.88;;;-146.93;77.36
21664;BME280;10993;52.510;13.456;2023-03-03T04:14:28;56564.84;;;-146.93;77.08
21664;BME280;10993;52.510;13.456;2023-03-03T04:19:29;56556.75;;;-146.93;76.62
21664;BME280;10993;52.510;13.456;2023-03-03T04:24:29;56572.94;;;-146.93;76.89
21664;BME280;10993;52.510;13.456;2023-03-03T04:29:31;56577.00;;;-146.93;76.89
21664;BME280;10993;52.510;13.456;2023-03-03T04:34:31;56502.06;;;-146.93;78.01
21664;BME280;10993;52.510;13.456;2023-03-03T04:39:32;56560.78;;;-146.93;77.60
21664;BME280;10993;52.510;13.456;2023-03-03T04:44:33;56550.66;;;-146.93;77.30
21664;BME280;10993;52.510;13.456;2023-03-03T04:49:34;56603.31;;;-146.93;79.61
21664;BME280;10993;52.510;13.456;2023-03-03T04:54:34;56603.31;;;-146.93;80.42
21664;BME280;10993;52.510;13.456;2023-03-03T04:59:36;56556.75;;;-146.93;80.25
21664;BME280;10993;52.510;13.456;2023-03-03T05:04:36;56589.13;;;-146.93;79.68
21664;BME280;10993;52.510;13.456;2023-03-03T05:09:37;56601.28;;;-146.93;80.28
21664;BME280;10993;52.510;13.456;2023-03-03T05:14:38;56884.75;;;-146.93;79.14
21664;BME280;10993;52.510;13.456;2023-03-03T05:19:39;56587.13;;;-146.93;79.01
21664;BME280;10993;52.510;13.456;2023-03-03T05:24:39;56611.41;;;-146.93;79.34
21664;BME280;10993;52.510;13.456;2023-03-03T05:29:43;56599.25;;;-146.93;79.77
21664;BME280;10993;52.510;13.456;2023-03-03T05:34:44;56593.19;;;-146.93;79.98
21664;BME280;10993;52.510;13.456;2023-03-03T05:39:44;56568.88;;;-146.93;79.68
21664;BME280;10993;52.510;13.456;2023-03-03T05:44:46;56552.69;;;-146.93;78.86
21664;BME280;10993;52.510;13.456;2023-03-03T05:49:46;56562.81;;;-146.93;78.44
21664;BME280;10993;52.510;13.456;2023-03-03T05:54:47;56577.00;;;-146.93;79.17
21664;BME280;10993;52.510;13.456;2023-03-03T05:59:49;56552.69;;;-146.93;78.97
21664;BME280;10993;52.510;13.456;2023-03-03T06:04:49;56564.84;;;-146.93;79.44
21664;BME280;10993;52.510;13.456;2023-03-03T06:09:50;56550.66;;;-146.93;79.33
21664;BME280;10993;52.510;13.456;2023-03-03T06:14:52;56564.84;;;-146.93;79.17
21664;BME280;10993;52.510;13.456;2023-03-03T06:19:52;56605.34;;;-146.93;78.80
21664;BME280;10993;52.510;13.456;2023-03-03T06:24:52;56585.09;;;-146.93;78.92
21664;BME280;10993;52.510;13.456;2023-03-03T06:29:54;56587.13;;;-146.93;80.29
21664;BME280;10993;52.510;13.456;2023-03-03T06:34:54;56583.06;;;-146.93;80.35
21664;BME280;10993;52.510;13.456;2023-03-03T06:39:55;56589.13;;;-146.93;79.06
21664;BME280;10993;52.510;13.456;2023-03-03T06:44:57;56524.34;;;-146.93;77.99
21664;BME280;10993;52.510;13.456;2023-03-03T06:49:58;56605.34;;;-146.93;78.46
21664;BME280;10993;52.510;13.456;2023-03-03T06:55:00;56593.19;;;-146.93;78.43
21664;BME280;10993;52.510;13.456;2023-03-03T07:00:14;56587.13;;;-146.93;77.86
21664;BME280;10993;52.510;13.456;2023-03-03T07:05:16;56613.44;;;-146.93;77.03
21664;BME280;10993;52.510;13.456;2023-03-03T07:10:22;56593.19;;;-146.93;77.44
21664;BME280;10993;52.510;13.456;2023-03-03T07:15:29;56544.59;;;-146.93;77.92
21664;BME280;10993;52.510;13.456;2023-03-03T07:20:35;56577.00;;;-146.93;79.27
21664;BME280;10993;52.510;13.456;2023-03-03T07:25:35;56568.88;;;-146.93;78.12
21664;BME280;10993;52.510;13.456;2023-03-03T07:30:41;56370.47;;;-146.93;77.90
21664;BME280;10993;52.510;13.456;2023-03-03T07:35:42;56574.97;;;-146.93;77.03
21664;BME280;10993;52.510;13.456;2023-03-03T07:40:47;56609.38;;;-146.93;79.45
21664;BME280;10993;52.510;13.456;2023-03-03T07:45:49;56572.94;;;-146.93;78.14
21664;BME280;10993;52.510;13.456;2023-03-03T07:50:51;56540.53;;;-146.93;77.12
21664;BME280;10993;52.510;13.456;2023-03-03T07:55:51;57095.34;;;-146.93;78.36
21664;BME280;10993;52.510;13.456;2023-03-03T08:06:41;56520.28;;;-146.93;77.93
21664;BME280;10993;52.510;13.456;2023-03-03T08:11:46;56564.84;;;-146.93;77.78
21664;BME280;10993;52.510;13.456;2023-03-03T08:16:48;56564.84;;;-146.93;77.08
21664;BME280;10993;52.510;13.456;2023-03-03T08:21:50;56558.75;;;-146.93;74.85
21664;BME280;10993;52.510;13.456;2023-03-03T08:26:50;56556.75;;;-146.93;73.00
21664;BME280;10993;52.510;13.456;2023-03-03T08:31:51;56526.38;;;-146.93;72.04
21664;BME280;10993;52.510;13.456;2023-03-03T08:36:52;56528.41;;;-146.93;70.54
21664;BME280;10993;52.510;13.456;2023-03-03T08:41:53;56572.94;;;-146.93;69.70
21664;BME280;10993;52.510;13.456;2023-03-03T08:46:53;56504.09;;;-146.93;69.98
21664;BME280;10993;52.510;13.456;2023-03-03T08:51:55;56530.41;;;-146.93;69.14
21664;BME280;10993;52.510;13.456;2023-03-03T08:56:56;56522.31;;;-146.93;68.14
21664;BME280;10993;52.510;13.456;2023-03-03T09:01:56;56532.44;;;-146.93;68.11
21664;BME280;10993;52.510;13.456;2023-03-03T09:06:58;56512.19;;;-146.93;68.50
21664;BME280;10993;52.510;13.456;2023-03-03T09:12:05;56498.03;;;-146.93;67.56
21664;BME280;10993;52.510;13.456;2023-03-03T09:17:21;56498.03;;;-146.93;64.53
21664;BME280;10993;52.510;13.456;2023-03-03T09:22:26;56516.25;;;-146.93;66.10
21664;BME280;10993;52.510;13.456;2023-03-03T09:27:29;56491.94;;;-146.93;65.49
21664;BME280;10993;52.510;13.456;2023-03-03T09:32:33;56506.13;;;-146.93;64.07
21664;BME280;10993;52.510;13.456;2023-03-03T09:37:36;56481.84;;;-146.93;63.31
21664;BME280;10993;52.510;13.456;2023-03-03T09:42:49;56528.41;;;-146.93;62.46
21664;BME280;10993;52.510;13.456;2023-03-03T09:48:04;56504.09;;;-146.93;61.51
21664;BME280;10993;52.510;13.456;2023-03-03T09:53:18;56504.09;;;-146.93;62.31
21664;BME280;10993;52.510;13.456;2023-03-03T09:58:33;56524.34;;;-146.93;60.71
21664;BME280;10993;52.510;13.456;2023-03-03T10:09:41;56500.06;;;-146.93;60.00
21664;BME280;10993;52.510;13.456;2023-03-03T10:14:55;56483.84;;;-146.93;58.38
21664;BME280;10993;52.510;13.456;2023-03-03T10:20:08;56427.16;;;-146.93;56.17
21664;BME280;10993;52.510;13.456;2023-03-03T10:25:22;56898.94;;;-146.93;55.94
21664;BME280;10993;52.510;13.456;2023-03-03T10:30:35;56508.16;;;-146.93;55.90
21664;BME280;10993;52.510;13.456;2023-03-03T10:36:03;56518.28;;;-146.93;55.45
21664;BME280;10993;52.510;13.456;2023-03-03T10:41:19;56514.22;;;-146.93;55.50
21664;BME280;10993;52.510;13.456;2023-03-03T10:46:36;56498.03;;;-146.93;54.28
21664;BME280;10993;52.510;13.456;2023-03-03T10:51:47;56481.84;;;-146.93;54.70
21664;BME280;10993;52.510;13.456;2023-03-03T10:56:57;56512.19;;;-146.93;56.29
21664;BME280;10993;52.510;13.456;2023-03-03T11:02:07;56439.31;;;-146.93;59.54
21664;BME280;10993;52.510;13.456;2023-03-03T11:07:19;56487.91;;;-146.93;58.24
21664;BME280;10993;52.510;13.456;2023-03-03T11:12:27;56524.34;;;-146.93;62.64
21664;BME280;10993;52.510;13.456;2023-03-03T11:17:40;56512.19;;;-146.93;60.82
21664;BME280;10993;52.510;13.456;2023-03-03T11:22:52;56487.91;;;-146.93;58.41
21664;BME280;10993;52.510;13.456;2023-03-03T11:28:10;56479.81;;;-146.93;57.94
21664;BME280;10993;52.510;13.456;2023-03-03T11:33:18;56493.97;;;-146.93;57.78
21664;BME280;10993;52.510;13.456;2023-03-03T11:38:32;56475.75;;;-146.93;57.11
21664;BME280;10993;52.510;13.456;2023-03-03T11:43:41;56522.31;;;-146.93;56.09
21664;BME280;10993;52.510;13.456;2023-03-03T11:48:50;56473.72;;;-146.93;56.39
21664;BME280;10993;52.510;13.456;2023-03-03T11:53:57;56479.81;;;-146.93;55.24
21664;BME280;10993;52.510;13.456;2023-03-03T11:59:31;57427.47;;;-146.93;54.55
21664;BME280;10993;52.510;13.456;2023-03-03T12:04:38;56459.56;;;-146.93;54.86
21664;BME280;10993;52.510;13.456;2023-03-03T12:09:48;56459.56;;;-146.93;53.43
21664;BME280;10993;52.510;13.456;2023-03-03T12:15:05;56485.88;;;-146.93;56.79
21664;BME280;10993;52.510;13.456;2023-03-03T12:20:14;56508.16;;;-146.93;57.73
21664;BME280;10993;52.510;13.456;2023-03-03T12:25:25;56455.50;;;-146.93;57.60
21664;BME280;10993;52.510;13.456;2023-03-03T12:30:43;56479.81;;;-146.93;55.67
21664;BME280;10993;52.510;13.456;2023-03-03T12:35:56;56504.09;;;-146.93;54.89
21664;BME280;10993;52.510;13.456;2023-03-03T12:41:06;56502.06;;;-146.93;53.46
21664;BME280;10993;52.510;13.456;2023-03-03T12:46:14;56449.44;;;-146.93;54.61
21664;BME280;10993;52.510;13.456;2023-03-03T12:51:27;57243.19;;;-146.93;55.57
21664;BME280;10993;52.510;13.456;2023-03-03T12:56:35;56500.06;;;-146.93;55.62
21664;BME280;10993;52.510;13.456;2023-03-03T13:01:48;56520.28;;;-146.93;54.88
21664;BME280;10993;52.510;13.456;2023-03-03T13:06:55;56508.16;;;-146.93;56.82
21664;BME280;10993;52.510;13.456;2023-03-03T13:12:11;56483.84;;;-146.93;58.89
21664;BME280;10993;52.510;13.456;2023-03-03T13:17:18;56481.84;;;-146.93;58.50
21664;BME280;10993;52.510;13.456;2023-03-03T13:22:30;56479.81;;;-146.93;57.64
21664;BME280;10993;52.510;13.456;2023-03-03T13:27:36;56493.97;;;-146.93;57.01
21664;BME280;10993;52.510;13.456;2023-03-03T13:32:42;56481.84;;;-146.93;56.71
21664;BME280;10993;52.510;13.456;2023-03-03T13:37:48;56479.81;;;-146.93;60.67
21664;BME280;10993;52.510;13.456;2023-03-03T13:42:55;56489.94;;;-146.93;60.08
21664;BME280;10993;52.510;13.456;2023-03-03T13:48:07;56443.38;;;-146.93;58.05
21664;BME280;10993;52.510;13.456;2023-03-03T13:53:31;56496.00;;;-146.93;58.55
21664;BME280;10993;52.510;13.456;2023-03-03T13:58:39;56542.56;;;-146.93;56.21
21664;BME280;10993;52.510;13.456;2023-03-03T14:04:05;56522.31;;;-146.93;56.65
21664;BME280;10993;52.510;13.456;2023-03-03T14:09:21;56500.06;;;-146.93;55.58
21664;BME280;10993;52.510;13.456;2023-03-03T14:14:35;56496.00;;;-146.93;56.78
21664;BME280;10993;52.510;13.456;2023-03-03T14:19:43;56455.50;;;-146.93;57.03
21664;BME280;10993;52.510;13.456;2023-03-03T14:25:02;56510.19;;;-146.93;57.41
21664;BME280;10993;52.510;13.456;2023-03-03T14:30:26;56496.00;;;-146.93;58.77
21664;BME280;10993;52.510;13.456;2023-03-03T14:35:31;56479.81;;;-146.93;58.95
21664;BME280;10993;52.510;13.456;2023-03-03T14:40:33;56463.59;;;-146.93;58.15
21664;BME280;10993;52.510;13.456;2023-03-03T14:45:36;56491.94;;;-146.93;57.09
21664;BME280;10993;52.510;13.456;2023-03-03T14:50:39;56512.19;;;-146.93;55.52
21664;BME280;10993;52.510;13.456;2023-03-03T14:55:42;56471.72;;;-146.93;55.78
21664;BME280;10993;52.510;13.456;2023-03-03T15:00:43;56487.91;;;-146.93;56.01
21664;BME280;10993;52.510;13.456;2023-03-03T15:05:49;56354.28;;;-146.93;56.17
21664;BME280;10993;52.510;13.456;2023-03-03T15:10:50;56487.91;;;-146.93;57.05
21664;BME280;10993;52.510;13.456;2023-03-03T15:15:52;56518.28;;;-146.93;56.47
21664;BME280;10993;52.510;13.456;2023-03-03T15:21:04;56512.19;;;-146.93;55.93
21664;BME280;10993;52.510;13.456;2023-03-03T15:26:09;56477.78;;;-146.93;56.45
21664;BME280;10993;52.510;13.456;2023-03-03T15:31:19;56516.25;;;-146.93;56.76
21664;BME280;10993;52.510;13.456;2023-03-03T15:36:28;56506.13;;;-146.93;57.38
21664;BME280;10993;52.510;13.456;2023-03-03T15:41:37;56508.16;;;-146.93;57.30
21664;BME280;10993;52.510;13.456;2023-03-03T15:47:10;56506.13;;;-146.93;58.90
21664;BME280;10993;52.510;13.456;2023-03-03T15:52:24;56483.84;;;-146.93;60.32
21664;BME280;10993;52.510;13.456;2023-03-03T15:57:39;56506.13;;;-146.93;60.24
21664;BME280;10993;52.510;13.456;2023-03-03T16:02:48;56483.84;;;-146.93;61.70
21664;BME280;10993;52.510;13.456;2023-03-03T16:07:59;56516.25;;;-146.93;62.94
21664;BME280;10993;52.510;13.456;2023-03-03T16:13:13;56502.06;;;-146.93;62.56
21664;BME280;10993;52.510;13.456;2023-03-03T16:18:28;56514.22;;;-146.93;62.46
21664;BME280;10993;52.510;13.456;2023-03-03T16:23:38;56467.66;;;-146.93;63.36
21664;BME280;10993;52.510;13.456;2023-03-03T16:28:54;56560.78;;;-146.93;63.96
21664;BME280;10993;52.510;13.456;2023-03-03T16:34:02;56461.59;;;-146.93;63.95
21664;BME280;10993;52.510;13.456;2023-03-03T16:39:12;56429.19;;;-146.93;64.63
21664;BME280;10993;52.510;13.456;2023-03-03T16:44:23;56500.06;;;-146.93;65.24
21664;BME280;10993;52.510;13.456;2023-03-03T16:49:32;56481.84;;;-146.93;65.73
21664;BME280;10993;52.510;13.456;2023-03-03T16:54:46;56483.84;;;-146.93;66.91
21664;BME280;10993;52.510;13.456;2023-03-03T17:00:03;56524.34;;;-146.93;67.96
21664;BME280;10993;52.510;13.456;2023-03-03T17:05:16;56512.19;;;-146.93;68.81
21664;BME280;10993;52.510;13.456;2023-03-03T17:10:24;56500.06;;;-146.93;69.69
21664;BME280;10993;52.510;13.456;2023-03-03T17:15:37;56520.28;;;-146.93;70.64
21664;BME280;10993;52.510;13.456;2023-03-03T17:20:46;56504.09;;;-146.93;70.88
21664;BME280;10993;52.510;13.456;2023-03-03T17:25:56;56427.16;;;-146.93;72.10
21664;BME280;10993;52.510;13.456;2023-03-03T17:31:09;56536.50;;;-146.93;71.62
21664;BME280;10993;52.510;13.456;2023-03-03T17:36:19;56496.00;;;-146.93;72.61
21664;BME280;10993;52.510;13.456;2023-03-03T17:41:30;56493.97;;;-146.93;72.72
21664;BME280;10993;52.510;13.456;2023-03-03T17:46:35;56504.09;;;-146.93;73.44
21664;BME280;10993;52.510;13.456;2023-03-03T17:57:20;56548.66;;;-146.93;71.84
21664;BME280;10993;52.510;13.456;2023-03-03T18:02:39;56520.28;;;-146.93;70.63
21664;BME280;10993;52.510;13.456;2023-03-03T18:07:54;56483.84;;;-146.93;69.95
21664;BME280;10993;52.510;13.456;2023-03-03T18:13:05;56554.72;;;-146.93;69.62
21664;BME280;10993;52.510;13.456;2023-03-03T18:18:26;56467.66;;;-146.93;69.39
21664;BME280;10993;52.510;13.456;2023-03-03T18:23:34;56518.28;;;-146.93;69.44
21664;BME280;10993;52.510;13.456;2023-03-03T18:28:48;56536.50;;;-146.93;68.98
21664;BME280;10993;52.510;13.456;2023-03-03T18:34:00;56443.38;;;-146.93;68.63
21664;BME280;10993;52.510;13.456;2023-03-03T18:39:03;56508.16;;;-146.93;68.77
21664;BME280;10993;52.510;13.456;2023-03-03T18:44:23;56500.06;;;-146.93;69.10
21664;BME280;10993;52.510;13.456;2023-03-03T18:49:49;57441.66;;;-146.93;68.95
21664;BME280;10993;52.510;13.456;2023-03-03T19:00:27;56491.94;;;-146.93;69.49
21664;BME280;10993;52.510;13.456;2023-03-03T19:05:35;56550.66;;;-146.93;69.40
21664;BME280;10993;52.510;13.456;2023-03-03T19:10:47;56504.09;;;-146.93;69.85
21664;BME280;10993;52.510;13.456;2023-03-03T19:15:55;56512.19;;;-146.93;69.41
21664;BME280;10993;52.510;13.456;2023-03-03T19:20:58;56447.41;;;-146.93;69.71
21664;BME280;10993;52.510;13.456;2023-03-03T19:32:02;56532.44;;;-146.93;70.14
21664;BME280;10993;52.510;13.456;2023-03-03T19:37:39;56520.28;;;-146.93;69.98
21664;BME280;10993;52.510;13.456;2023-03-03T19:42:52;56504.09;;;-146.93;69.95
21664;BME280;10993;52.510;13.456;2023-03-03T19:48:04;56479.81;;;-146.93;69.47
21664;BME280;10993;52.510;13.456;2023-03-03T19:53:14;56508.16;;;-146.93;69.77
21664;BME280;10993;52.510;13.456;2023-03-03T19:58:27;56528.41;;;-146.93;68.74
21664;BME280;10993;52.510;13.456;2023-03-03T20:04:04;56540.53;;;-146.93;69.15
21664;BME280;10993;52.510;13.456;2023-03-03T20:09:21;56406.91;;;-146.93;68.53
21664;BME280;10993;52.510;13.456;2023-03-03T20:14:38;56508.16;;;-146.93;68.48
21664;BME280;10993;52.510;13.456;2023-03-03T20:19:47;56524.34;;;-146.93;67.19
21664;BME280;10993;52.510;13.456;2023-03-03T20:25:04;56692.41;;;-146.93;67.10
21664;BME280;10993;52.510;13.456;2023-03-03T20:30:16;56520.28;;;-146.93;66.68
21664;BME280;10993;52.510;13.456;2023-03-03T20:35:33;56512.19;;;-146.93;66.42
21664;BME280;10993;52.510;13.456;2023-03-03T20:40:42;56526.38;;;-146.93;66.11
21664;BME280;10993;52.510;13.456;2023-03-03T20:45:55;56506.13;;;-146.93;66.46
21664;BME280;10993;52.510;13.456;2023-03-03T20:51:04;56544.59;;;-146.93;65.79
21664;BME280;10993;52.510;13.456;2023-03-03T20:56:10;56483.84;;;-146.93;65.19
21664;BME280;10993;52.510;13.456;2023-03-03T21:01:16;56402.88;;;-146.93;65.17
21664;BME280;10993;52.510;13.456;2023-03-03T21:06:36;56512.19;;;-146.93;64.93
21664;BME280;10993;52.510;13.456;2023-03-03T21:11:42;56485.88;;;-146.93;65.28
21664;BME280;10993;52.510;13.456;2023-03-03T21:16:45;56439.31;;;-146.93;65.25
21664;BME280;10993;52.510;13.456;2023-03-03T21:21:48;56439.31;;;-146.93;65.11
21664;BME280;10993;52.510;13.456;2023-03-03T21:26:52;56441.34;;;-146.93;64.83
21664;BME280;10993;52.510;13.456;2023-03-03T21:31:54;56465.63;;;-146.93;63.99
21664;BME280;10993;52.510;13.456;2023-03-03T21:36:56;56423.13;;;-146.93;63.37
21664;BME280;10993;52.510;13.456;2023-03-03T21:42:00;56366.44;;;-146.93;63.92
21664;BME280;10993;52.510;13.456;2023-03-03T21:47:01;56471.72;;;-146.93;63.84
21664;BME280;10993;52.510;13.456;2023-03-03T21:52:04;56534.47;;;-146.93;63.73
21664;BME280;10993;52.510;13.456;2023-03-03T21:57:04;56500.06;;;-146.93;64.00
21664;BME280;10993;52.510;13.456;2023-03-03T22:02:05;56556.75;;;-146.93;65.18
21664;BME280;10993;52.510;13.456;2023-03-03T22:07:08;56500.06;;;-146.93;64.66
21664;BME280;10993;52.510;13.456;2023-03-03T22:12:08;56457.53;;;-146.93;63.79
21664;BME280;10993;52.510;13.456;2023-03-03T22:17:09;56491.94;;;-146.93;64.64
21664;BME280;10993;52.510;13.456;2023-03-03T22:22:11;56475.75;;;-146.93;65.67
21664;BME280;10993;52.510;13.456;2023-03-03T22:27:11;56510.19;;;-146.93;64.61
21664;BME280;10993;52.510;13.456;2023-03-03T22:32:12;56530.41;;;-146.93;65.40
21664;BME280;10993;52.510;13.456;2023-03-03T22:37:13;56477.78;;;-146.93;65.33
21664;BME280;10993;52.510;13.456;2023-03-03T22:42:14;56504.09;;;-146.93;65.22
21664;BME280;10993;52.510;13.456;2023-03-03T22:47:14;56524.34;;;-146.93;64.84
21664;BME280;10993;52.510;13.456;2023-03-03T22:52:16;56500.06;;;-146.93;64.99
21664;BME280;10993;52.510;13.456;2023-03-03T22:57:16;56522.31;;;-146.93;65.42
21664;BME280;10993;52.510;13.456;2023-03-03T23:02:16;56516.25;;;-146.93;65.38
21664;BME280;10993;52.510;13.456;2023-03-03T23:07:18;56538.53;;;-146.93;66.90
21664;BME280;10993;52.510;13.456;2023-03-03T23:12:19;56532.44;;;-146.93;67.23
21664;BME280;10993;52.510;13.456;2023-03-03T23:17:19;56542.56;;;-146.93;68.61
21664;BME280;10993;52.510;13.456;2023-03-03T23:22:21;56496.00;;;-146.93;69.93
21664;BME280;10993;52.510;13.456;2023-03-03T23:27:21;56538.53;;;-146.93;71.37
21664;BME280;10993;52.510;13.456;2023-03-03T23:32:22;56548.66;;;-146.93;72.12
21664;BME280;10993;52.510;13.456;2023-03-03T23:37:24;56550.66;;;-146.93;73.06
21664;BME280;10993;52.510;13.456;2023-03-03T23:42:25;56479.81;;;-146.93;74.10
21664;BME280;10993;52.510;13.456;2023-03-03T23:47:27;56449.44;;;-146.93;74.70
21664;BME280;10993;52.510;13.456;2023-03-03T23:52:28;56534.47;;;-146.93;75.39
21664;BME280;10993;52.510;13.456;2023-03-03T23:57:29;56508.16;;;-146.93;75.96
